createdAt,value
2024-04-09T00:00:03.929Z,19.32
2024-04-09T00:01:03.971Z,19.29
2024-04-09T00:02:03.864Z,19.28
2024-04-09T00:03:03.966Z,19.28
2024-04-09T00:04:04.026Z,19.26
2024-04-09T00:05:03.964Z,19.26
2024-04-09T00:06:03.847Z,19.25
2024-04-09T00:07:03.795Z,19.23
2024-04-09T00:08:03.794Z,19.23
2024-04-09T00:09:03.839Z,19.22
2024-04-09T00:10:03.784Z,19.19
2024-04-09T00:11:03.749Z,19.18
2024-04-09T00:12:03.789Z,19.14
2024-04-09T00:13:03.738Z,19.13
2024-04-09T00:14:03.740Z,19.11
2024-04-09T00:15:03.757Z,19.10
2024-04-09T00:16:03.702Z,19.07
2024-04-09T00:17:03.750Z,19.07
2024-04-09T00:18:03.825Z,19.07
2024-04-09T00:19:03.777Z,19.07
2024-04-09T00:20:03.664Z,19.06
2024-04-09T00:21:03.726Z,19.06
2024-04-09T00:22:03.643Z,19.04
2024-04-09T00:23:03.619Z,19.00
2024-04-09T00:24:03.641Z,18.98
2024-04-09T00:25:03.597Z,18.98
2024-04-09T00:26:03.623Z,18.98
2024-04-09T00:27:03.596Z,18.95
2024-04-09T00:28:03.587Z,18.94
2024-04-09T00:29:03.606Z,18.92
2024-04-09T00:30:03.610Z,18.92
2024-04-09T00:31:03.552Z,18.92
2024-04-09T00:32:03.527Z,18.94
2024-04-09T00:33:03.749Z,18.92
2024-04-09T00:34:03.683Z,18.94
2024-04-09T00:35:03.520Z,18.92
2024-04-09T00:36:03.524Z,18.91
2024-04-09T00:37:03.467Z,18.91
2024-04-09T00:38:03.460Z,18.88
2024-04-09T00:39:03.562Z,18.85
2024-04-09T00:40:03.448Z,18.87
2024-04-09T00:41:03.446Z,18.85
2024-04-09T00:42:03.498Z,18.84
2024-04-09T00:43:03.408Z,18.85
2024-04-09T00:44:03.430Z,18.85
2024-04-09T00:45:03.426Z,18.84
2024-04-09T00:46:03.380Z,18.84
2024-04-09T00:47:03.395Z,18.82
2024-04-09T00:48:03.651Z,18.81
2024-04-09T00:49:03.612Z,18.78
2024-04-09T00:50:03.336Z,18.80
2024-04-09T00:51:03.361Z,18.75
2024-04-09T00:52:03.698Z,18.76
2024-04-09T00:53:03.334Z,18.75
2024-04-09T00:54:03.289Z,18.75
2024-04-09T00:55:03.268Z,18.73
2024-04-09T00:56:03.262Z,18.72
2024-04-09T00:57:04.038Z,18.70
2024-04-09T00:58:03.249Z,18.70
2024-04-09T00:59:04.020Z,18.67
2024-04-09T01:00:03.283Z,18.66
2024-04-09T01:01:03.221Z,18.65
2024-04-09T01:02:03.191Z,18.63
2024-04-09T01:03:03.381Z,18.66
2024-04-09T01:04:03.337Z,18.63
2024-04-09T01:05:03.166Z,18.63
2024-04-09T01:06:03.206Z,18.63
2024-04-09T01:07:03.147Z,18.63
2024-04-09T01:08:03.139Z,18.63
2024-04-09T01:09:03.152Z,18.63
2024-04-09T01:10:03.112Z,18.62
2024-04-09T01:11:03.118Z,18.63
2024-04-09T01:12:03.130Z,18.62
2024-04-09T01:13:03.099Z,18.60
2024-04-09T01:14:03.088Z,18.58
2024-04-09T01:15:03.113Z,18.60
2024-04-09T01:16:03.045Z,18.58
2024-04-09T01:17:03.080Z,18.57
2024-04-09T01:18:03.115Z,18.60
2024-04-09T01:19:03.137Z,18.57
2024-04-09T01:20:02.997Z,18.58
2024-04-09T01:21:03.059Z,18.57
2024-04-09T01:22:02.987Z,18.58
2024-04-09T01:23:02.973Z,18.58
2024-04-09T01:24:02.995Z,18.57
2024-04-09T01:25:03.017Z,18.52
2024-04-09T01:26:02.934Z,18.52
2024-04-09T01:27:02.949Z,18.51
2024-04-09T01:28:02.915Z,18.51
2024-04-09T01:29:02.912Z,18.50
2024-04-09T01:30:03.000Z,18.51
2024-04-09T01:31:02.898Z,18.51
2024-04-09T01:32:02.875Z,18.51
2024-04-09T01:33:03.320Z,18.50
2024-04-09T01:34:03.053Z,18.50
2024-04-09T01:35:02.885Z,18.50
2024-04-09T01:36:02.863Z,18.48
2024-04-09T01:37:02.821Z,18.48
2024-04-09T01:38:02.807Z,18.45
2024-04-09T01:39:02.826Z,18.45
2024-04-09T01:40:02.794Z,18.45
2024-04-09T01:41:02.795Z,18.44
2024-04-09T01:42:02.834Z,18.42
2024-04-09T01:43:02.765Z,18.41
2024-04-09T01:44:02.775Z,18.39
2024-04-09T01:45:02.796Z,18.37
2024-04-09T01:46:02.725Z,18.37
2024-04-09T01:47:02.810Z,18.36
2024-04-09T01:48:02.839Z,18.35
2024-04-09T01:49:02.720Z,18.35
2024-04-09T01:50:02.691Z,18.33
2024-04-09T01:51:02.722Z,18.32
2024-04-09T01:52:02.662Z,18.30
2024-04-09T01:53:02.649Z,18.30
2024-04-09T01:54:02.705Z,18.29
2024-04-09T01:55:02.633Z,18.27
2024-04-09T01:56:02.626Z,18.26
2024-04-09T01:57:02.660Z,18.26
2024-04-09T01:58:02.638Z,18.25
2024-04-09T01:59:02.593Z,18.23
2024-04-09T02:00:02.621Z,18.23
2024-04-09T02:01:02.603Z,18.23
2024-04-09T02:02:02.556Z,18.21
2024-04-09T02:03:02.833Z,18.21
2024-04-09T02:04:02.622Z,18.18
2024-04-09T02:05:02.526Z,18.17
2024-04-09T02:06:02.564Z,18.15
2024-04-09T02:07:02.503Z,18.12
2024-04-09T02:08:02.498Z,18.12
2024-04-09T02:09:02.539Z,18.11
2024-04-09T02:10:02.465Z,18.10
2024-04-09T02:11:02.460Z,18.08
2024-04-09T02:12:02.689Z,18.08
2024-04-09T02:13:02.468Z,18.08
2024-04-09T02:14:02.422Z,18.07
2024-04-09T02:15:02.438Z,18.05
2024-04-09T02:16:02.434Z,18.02
2024-04-09T02:17:02.393Z,18.02
2024-04-09T02:18:02.441Z,17.99
2024-04-09T02:19:02.395Z,17.96
2024-04-09T02:20:02.389Z,17.92
2024-04-09T02:21:02.377Z,17.90
2024-04-09T02:22:02.357Z,17.87
2024-04-09T02:23:02.332Z,17.86
2024-04-09T02:24:02.435Z,17.87
2024-04-09T02:25:02.316Z,17.86
2024-04-09T02:26:02.296Z,17.87
2024-04-09T02:27:02.426Z,17.86
2024-04-09T02:28:02.310Z,17.86
2024-04-09T02:29:02.276Z,17.84
2024-04-09T02:30:02.377Z,17.84
2024-04-09T02:31:02.273Z,17.82
2024-04-09T02:32:02.398Z,17.82
2024-04-09T02:33:02.331Z,17.79
2024-04-09T02:34:02.317Z,17.81
2024-04-09T02:35:02.213Z,17.79
2024-04-09T02:36:02.224Z,17.79
2024-04-09T02:37:02.178Z,17.77
2024-04-09T02:38:02.190Z,17.77
2024-04-09T02:39:02.268Z,17.74
2024-04-09T02:40:02.143Z,17.72
2024-04-09T02:41:02.141Z,17.72
2024-04-09T02:42:02.138Z,17.72
2024-04-09T02:43:02.108Z,17.72
2024-04-09T02:44:02.125Z,17.72
2024-04-09T02:45:02.165Z,17.71
2024-04-09T02:46:02.117Z,17.71
2024-04-09T02:47:02.207Z,17.70
2024-04-09T02:48:02.197Z,17.72
2024-04-09T02:49:02.202Z,17.71
2024-04-09T02:50:02.048Z,17.71
2024-04-09T02:51:02.118Z,17.70
2024-04-09T02:52:02.025Z,17.70
2024-04-09T02:53:02.011Z,17.71
2024-04-09T02:54:02.037Z,17.66
2024-04-09T02:55:02.027Z,17.66
2024-04-09T02:56:01.962Z,17.64
2024-04-09T02:57:02.039Z,17.63
2024-04-09T02:58:01.949Z,17.66
2024-04-09T02:59:02.166Z,17.62
2024-04-09T03:00:02.066Z,17.63
2024-04-09T03:01:02.085Z,17.63
2024-04-09T03:02:01.916Z,17.63
2024-04-09T03:03:01.945Z,17.59
2024-04-09T03:04:02.149Z,17.58
2024-04-09T03:05:01.954Z,17.58
2024-04-09T03:06:02.030Z,17.56
2024-04-09T03:07:01.861Z,17.56
2024-04-09T03:08:02.000Z,17.56
2024-04-09T03:09:01.984Z,17.55
2024-04-09T03:10:01.823Z,17.54
2024-04-09T03:11:01.919Z,17.52
2024-04-09T03:12:02.661Z,17.52
2024-04-09T03:13:01.849Z,17.52
2024-04-09T03:14:01.885Z,17.54
2024-04-09T03:15:02.056Z,17.51
2024-04-09T03:16:01.973Z,17.51
2024-04-09T03:17:01.826Z,17.51
2024-04-09T03:18:01.980Z,17.51
2024-04-09T03:19:01.863Z,17.49
2024-04-09T03:20:01.750Z,17.49
2024-04-09T03:21:02.105Z,17.49
2024-04-09T03:22:02.108Z,17.48
2024-04-09T03:23:01.689Z,17.46
2024-04-09T03:24:01.813Z,17.44
2024-04-09T03:25:01.662Z,17.44
2024-04-09T03:26:01.654Z,17.44
2024-04-09T03:27:01.749Z,17.44
2024-04-09T03:28:01.621Z,17.41
2024-04-09T03:29:01.614Z,17.40
2024-04-09T03:30:01.681Z,17.37
2024-04-09T03:31:01.587Z,17.37
2024-04-09T03:32:01.588Z,17.37
2024-04-09T03:33:02.563Z,17.34
2024-04-09T03:34:01.817Z,17.34
2024-04-09T03:35:01.542Z,17.33
2024-04-09T03:36:01.590Z,17.33
2024-04-09T03:37:01.579Z,17.31
2024-04-09T03:38:01.541Z,17.30
2024-04-09T03:39:01.555Z,17.30
2024-04-09T03:40:01.496Z,17.30
2024-04-09T03:41:01.498Z,17.28
2024-04-09T03:42:01.542Z,17.28
2024-04-09T03:43:01.452Z,17.28
2024-04-09T03:44:01.444Z,17.26
2024-04-09T03:45:01.573Z,17.28
2024-04-09T03:46:01.480Z,17.28
2024-04-09T03:47:01.439Z,17.28
2024-04-09T03:48:01.620Z,17.28
2024-04-09T03:49:01.649Z,17.26
2024-04-09T03:50:01.387Z,17.28
2024-04-09T03:51:01.425Z,17.26
2024-04-09T03:52:01.382Z,17.28
2024-04-09T03:53:01.347Z,17.26
2024-04-09T03:54:01.390Z,17.26
2024-04-09T03:55:01.327Z,17.26
2024-04-09T03:56:01.318Z,17.26
2024-04-09T03:57:01.360Z,17.28
2024-04-09T03:58:01.328Z,17.26
2024-04-09T03:59:01.299Z,17.26
2024-04-09T04:00:01.357Z,17.25
2024-04-09T04:01:02.957Z,17.25
2024-04-09T04:02:01.320Z,17.25
2024-04-09T04:03:01.299Z,17.25
2024-04-09T04:04:01.373Z,17.23
2024-04-09T04:05:01.221Z,17.22
2024-04-09T04:06:01.257Z,17.22
2024-04-09T04:07:01.209Z,17.21
2024-04-09T04:08:01.197Z,17.22
2024-04-09T04:09:01.194Z,17.21
2024-04-09T04:10:01.173Z,17.19
2024-04-09T04:11:01.196Z,17.21
2024-04-09T04:12:01.216Z,17.21
2024-04-09T04:13:01.127Z,17.19
2024-04-09T04:14:01.123Z,17.18
2024-04-09T04:15:01.171Z,17.18
2024-04-09T04:16:01.116Z,17.18
2024-04-09T04:17:01.108Z,17.18
2024-04-09T04:18:01.253Z,17.15
2024-04-09T04:19:01.093Z,17.16
2024-04-09T04:20:01.069Z,17.15
2024-04-09T04:21:01.086Z,17.16
2024-04-09T04:22:01.057Z,17.15
2024-04-09T04:23:01.028Z,17.15
2024-04-09T04:24:01.049Z,17.15
2024-04-09T04:25:01.017Z,17.14
2024-04-09T04:26:01.019Z,17.14
2024-04-09T04:27:01.029Z,17.14
2024-04-09T04:28:00.987Z,17.15
2024-04-09T04:29:00.951Z,17.15
2024-04-09T04:30:01.042Z,17.14
2024-04-09T04:31:00.930Z,17.14
2024-04-09T04:32:00.935Z,17.14
2024-04-09T04:33:01.098Z,17.12
2024-04-09T04:34:01.136Z,17.15
2024-04-09T04:35:00.920Z,17.15
2024-04-09T04:36:00.942Z,17.14
2024-04-09T04:37:00.882Z,17.14
2024-04-09T04:38:00.864Z,17.15
2024-04-09T04:39:00.928Z,17.14
2024-04-09T04:40:00.862Z,17.14
2024-04-09T04:41:00.840Z,17.15
2024-04-09T04:42:00.899Z,17.15
2024-04-09T04:43:00.809Z,17.15
2024-04-09T04:44:00.839Z,17.16
2024-04-09T04:45:00.857Z,17.15
2024-04-09T04:46:00.784Z,17.15
2024-04-09T04:47:00.790Z,17.16
2024-04-09T04:48:00.937Z,17.18
2024-04-09T04:49:00.933Z,17.16
2024-04-09T04:50:00.756Z,17.16
2024-04-09T04:51:00.776Z,17.15
2024-04-09T04:52:00.706Z,17.16
2024-04-09T04:53:00.714Z,17.16
2024-04-09T04:54:00.786Z,17.18
2024-04-09T04:55:00.690Z,17.18
2024-04-09T04:56:00.679Z,17.18
2024-04-09T04:57:00.696Z,17.18
2024-04-09T04:58:00.649Z,17.19
2024-04-09T04:59:00.656Z,17.19
2024-04-09T05:00:00.756Z,17.19
2024-04-09T05:01:00.930Z,17.18
2024-04-09T05:02:00.670Z,17.19
2024-04-09T05:03:00.943Z,17.19
2024-04-09T05:04:00.687Z,17.18
2024-04-09T05:05:00.594Z,17.19
2024-04-09T05:06:00.580Z,17.21
2024-04-09T05:07:00.546Z,17.21
2024-04-09T05:08:00.584Z,17.19
2024-04-09T05:09:00.599Z,17.22
2024-04-09T05:10:00.538Z,17.22
2024-04-09T05:11:00.556Z,17.22
2024-04-09T05:12:00.540Z,17.22
2024-04-09T05:13:00.482Z,17.21
2024-04-09T05:14:00.476Z,17.22
2024-04-09T05:15:00.588Z,17.23
2024-04-09T05:16:00.487Z,17.26
2024-04-09T05:17:00.448Z,17.26
2024-04-09T05:18:00.603Z,17.26
2024-04-09T05:19:00.627Z,17.28
2024-04-09T05:20:00.426Z,17.26
2024-04-09T05:21:00.474Z,17.28
2024-04-09T05:22:00.444Z,17.28
2024-04-09T05:23:00.400Z,17.28
2024-04-09T05:24:00.419Z,17.30
2024-04-09T05:25:00.370Z,17.31
2024-04-09T05:26:00.355Z,17.31
2024-04-09T05:27:00.376Z,17.31
2024-04-09T05:28:00.358Z,17.33
2024-04-09T05:29:00.307Z,17.36
2024-04-09T05:30:00.392Z,17.36
2024-04-09T05:31:00.383Z,17.38
2024-04-09T05:32:00.321Z,17.40
2024-04-09T05:33:00.530Z,17.40
2024-04-09T05:34:00.340Z,17.41
2024-04-09T05:35:00.263Z,17.44
2024-04-09T05:36:00.260Z,17.46
2024-04-09T05:37:00.263Z,17.48
2024-04-09T05:38:00.227Z,17.49
2024-04-09T05:39:00.246Z,17.51
2024-04-09T05:40:00.237Z,17.52
2024-04-09T05:41:00.183Z,17.55
2024-04-09T05:42:00.240Z,17.58
2024-04-09T05:43:00.175Z,17.62
2024-04-09T05:44:00.162Z,17.63
2024-04-09T05:45:00.223Z,17.66
2024-04-09T05:46:00.150Z,17.68
2024-04-09T05:47:00.114Z,17.70
2024-04-09T05:48:00.271Z,17.72
2024-04-09T05:49:00.218Z,17.74
2024-04-09T05:50:00.126Z,17.77
2024-04-09T05:51:00.143Z,17.77
2024-04-09T05:52:00.064Z,17.79
2024-04-09T05:53:00.065Z,17.82
2024-04-09T05:54:00.142Z,17.84
2024-04-09T05:55:00.027Z,17.86
2024-04-09T05:56:00.020Z,17.86
2024-04-09T05:57:00.040Z,17.92
2024-04-09T05:58:00.000Z,17.92
2024-04-09T05:59:00.009Z,17.95
2024-04-09T06:00:00.011Z,17.97
2024-04-09T06:01:00.095Z,17.99
2024-04-09T06:01:59.975Z,18.00
2024-04-09T06:03:00.020Z,18.05
2024-04-09T06:03:59.972Z,18.08
2024-04-09T06:04:59.953Z,18.08
2024-04-09T06:06:00.011Z,18.11
2024-04-09T06:06:59.899Z,18.14
2024-04-09T06:07:59.885Z,18.17
2024-04-09T06:08:59.925Z,18.17
2024-04-09T06:10:00.015Z,18.18
2024-04-09T06:10:59.852Z,18.20
2024-04-09T06:11:59.863Z,18.23
2024-04-09T06:12:59.833Z,18.25
2024-04-09T06:13:59.831Z,18.26
2024-04-09T06:14:59.962Z,18.29
2024-04-09T06:15:59.822Z,18.32
2024-04-09T06:16:59.801Z,18.32
2024-04-09T06:17:59.940Z,18.36
2024-04-09T06:19:00.007Z,18.39
2024-04-09T06:19:59.833Z,18.44
2024-04-09T06:20:59.828Z,18.47
2024-04-09T06:21:59.754Z,18.50
2024-04-09T06:22:59.727Z,18.54
2024-04-09T06:23:59.783Z,18.57
2024-04-09T06:24:59.731Z,18.58
2024-04-09T06:25:59.708Z,18.62
2024-04-09T06:26:59.717Z,18.63
2024-04-09T06:27:59.684Z,18.66
2024-04-09T06:28:59.676Z,18.70
2024-04-09T06:29:59.720Z,18.72
2024-04-09T06:30:59.644Z,18.75
2024-04-09T06:31:59.663Z,18.78
2024-04-09T06:32:59.839Z,18.80
2024-04-09T06:33:59.737Z,18.84
2024-04-09T06:34:59.613Z,18.87
2024-04-09T06:36:05.677Z,18.88
2024-04-09T06:36:59.621Z,18.91
2024-04-09T06:37:59.641Z,18.94
2024-04-09T06:38:59.622Z,18.95
2024-04-09T06:39:59.601Z,18.98
2024-04-09T06:40:59.529Z,18.99
2024-04-09T06:41:59.556Z,19.00
2024-04-09T06:42:59.513Z,19.04
2024-04-09T06:43:59.510Z,19.07
2024-04-09T06:44:59.561Z,19.11
2024-04-09T06:45:59.508Z,19.14
2024-04-09T06:46:59.463Z,19.16
2024-04-09T06:47:59.606Z,19.21
2024-04-09T06:48:59.656Z,19.23
2024-04-09T06:49:59.459Z,19.23
2024-04-09T06:50:59.464Z,19.29
2024-04-09T06:51:59.408Z,19.29
2024-04-09T06:52:59.414Z,19.33
2024-04-09T06:53:59.478Z,19.36
2024-04-09T06:54:59.382Z,19.40
2024-04-09T06:55:59.384Z,19.46
2024-04-09T06:56:59.466Z,19.48
2024-04-09T06:57:59.352Z,19.51
2024-04-09T06:58:59.351Z,19.55
2024-04-09T06:59:59.391Z,19.58
2024-04-09T07:00:59.382Z,19.61
2024-04-09T07:01:59.365Z,19.63
2024-04-09T07:02:59.398Z,19.66
2024-04-09T07:03:59.397Z,19.69
2024-04-09T07:04:59.297Z,19.71
2024-04-09T07:05:59.277Z,19.74
2024-04-09T07:06:59.264Z,19.77
2024-04-09T07:07:59.261Z,19.80
2024-04-09T07:08:59.269Z,19.83
2024-04-09T07:09:59.219Z,19.84
2024-04-09T07:10:59.207Z,19.88
2024-04-09T07:11:59.222Z,19.92
2024-04-09T07:12:59.192Z,19.95
2024-04-09T07:13:59.170Z,19.98
2024-04-09T07:14:59.207Z,20.01
2024-04-09T07:15:59.156Z,20.03
2024-04-09T07:16:59.201Z,20.06
2024-04-09T07:17:59.253Z,20.11
2024-04-09T07:18:59.280Z,20.11
2024-04-09T07:19:59.126Z,20.13
2024-04-09T07:20:59.195Z,20.16
2024-04-09T07:21:59.090Z,20.18
2024-04-09T07:22:59.076Z,20.20
2024-04-09T07:23:59.142Z,20.24
2024-04-09T07:24:59.095Z,20.28
2024-04-09T07:25:59.044Z,20.33
2024-04-09T07:26:59.064Z,20.36
2024-04-09T07:27:59.019Z,20.39
2024-04-09T07:28:59.009Z,20.41
2024-04-09T07:29:59.023Z,20.42
2024-04-09T07:30:59.054Z,20.48
2024-04-09T07:31:58.978Z,20.52
2024-04-09T07:32:59.152Z,20.55
2024-04-09T07:33:59.147Z,20.55
2024-04-09T07:34:58.952Z,20.57
2024-04-09T07:35:58.976Z,20.58
2024-04-09T07:36:58.928Z,20.62
2024-04-09T07:37:58.923Z,20.66
2024-04-09T07:38:59.001Z,20.67
2024-04-09T07:39:58.914Z,20.72
2024-04-09T07:40:58.895Z,20.72
2024-04-09T07:41:58.965Z,20.74
2024-04-09T07:42:58.859Z,20.76
2024-04-09T07:43:58.853Z,20.79
2024-04-09T07:44:58.864Z,20.82
2024-04-09T07:45:58.831Z,20.87
2024-04-09T07:46:58.829Z,20.89
2024-04-09T07:47:58.919Z,20.91
2024-04-09T07:48:58.831Z,20.97
2024-04-09T07:49:58.801Z,20.98
2024-04-09T07:50:58.799Z,21.01
2024-04-09T07:51:58.793Z,21.06
2024-04-09T07:52:58.754Z,21.07
2024-04-09T07:53:58.785Z,21.12
2024-04-09T07:55:00.449Z,21.13
2024-04-09T07:55:58.712Z,21.16
2024-04-09T07:56:58.772Z,21.16
2024-04-09T07:57:58.692Z,21.16
2024-04-09T07:58:58.698Z,21.17
2024-04-09T07:59:58.727Z,21.19
2024-04-09T08:00:58.771Z,21.19
2024-04-09T08:01:58.678Z,21.13
2024-04-09T08:02:59.591Z,21.19
2024-04-09T08:03:58.779Z,21.21
2024-04-09T08:04:59.062Z,21.24
2024-04-09T08:05:59.076Z,21.27
2024-04-09T08:06:58.741Z,21.28
2024-04-09T08:07:58.658Z,21.32
2024-04-09T08:08:58.762Z,21.35
2024-04-09T08:09:58.892Z,21.40
2024-04-09T08:10:58.655Z,21.42
2024-04-09T08:11:58.728Z,21.44
2024-04-09T08:12:58.626Z,21.47
2024-04-09T08:13:58.565Z,21.52
2024-04-09T08:14:58.577Z,21.54
2024-04-09T08:15:58.501Z,21.56
2024-04-09T08:16:58.495Z,21.59
2024-04-09T08:17:58.661Z,21.62
2024-04-09T08:18:58.647Z,21.67
2024-04-09T08:19:58.604Z,21.69
2024-04-09T08:20:58.479Z,21.74
2024-04-09T08:21:58.473Z,21.75
2024-04-09T08:22:58.429Z,21.80
2024-04-09T08:23:58.426Z,21.83
2024-04-09T08:24:58.483Z,21.86
2024-04-09T08:25:58.405Z,21.90
2024-04-09T08:26:58.458Z,21.94
2024-04-09T08:27:58.383Z,21.96
2024-04-09T08:28:58.403Z,21.99
2024-04-09T08:29:58.406Z,22.02
2024-04-09T08:30:58.384Z,22.05
2024-04-09T08:31:58.393Z,22.07
2024-04-09T08:32:58.631Z,22.07
2024-04-09T08:33:58.388Z,22.12
2024-04-09T08:34:58.337Z,22.15
2024-04-09T08:35:58.471Z,22.18
2024-04-09T08:36:58.450Z,22.22
2024-04-09T08:37:58.259Z,22.24
2024-04-09T08:38:58.386Z,22.30
2024-04-09T08:39:58.512Z,22.33
2024-04-09T08:40:58.304Z,22.35
2024-04-09T08:41:58.440Z,22.35
2024-04-09T08:42:59.543Z,22.36
2024-04-09T08:43:58.379Z,22.37
2024-04-09T08:44:58.190Z,22.42
2024-04-09T08:45:58.620Z,22.43
2024-04-09T08:46:58.186Z,22.49
2024-04-09T08:47:58.405Z,22.52
2024-04-09T08:48:58.386Z,22.57
2024-04-09T08:50:01.889Z,22.61
2024-04-09T08:50:58.746Z,22.65
2024-04-09T08:51:58.207Z,22.72
2024-04-09T08:52:58.210Z,22.76
2024-04-09T08:53:58.108Z,22.80
2024-04-09T08:54:58.088Z,22.85
2024-04-09T08:55:58.073Z,22.91
2024-04-09T08:56:58.100Z,22.95
2024-04-09T08:57:58.063Z,23.00
2024-04-09T08:58:58.082Z,23.04
2024-04-09T08:59:58.027Z,23.07
2024-04-09T09:00:58.185Z,23.12
2024-04-09T09:01:59.838Z,23.16
2024-04-09T09:02:58.054Z,23.20
2024-04-09T09:03:58.119Z,23.27
2024-04-09T09:04:58.086Z,23.31
2024-04-09T09:05:57.969Z,23.35
2024-04-09T09:06:57.986Z,23.38
2024-04-09T09:07:59.921Z,23.42
2024-04-09T09:08:57.944Z,23.47
2024-04-09T09:09:57.920Z,23.50
2024-04-09T09:10:58.007Z,23.55
2024-04-09T09:11:57.929Z,23.57
2024-04-09T09:12:57.935Z,23.60
2024-04-09T09:13:59.702Z,23.65
2024-04-09T09:14:57.866Z,23.68
2024-04-09T09:15:57.925Z,23.72
2024-04-09T09:16:57.903Z,23.73
2024-04-09T09:17:58.003Z,23.78
2024-04-09T09:18:57.923Z,23.85
2024-04-09T09:19:59.920Z,23.87
2024-04-09T09:20:57.822Z,23.91
2024-04-09T09:21:57.798Z,23.97
2024-04-09T09:22:57.816Z,23.97
2024-04-09T09:23:58.330Z,24.02
2024-04-09T09:24:57.766Z,24.05
2024-04-09T09:25:57.758Z,24.09
2024-04-09T09:26:57.738Z,24.13
2024-04-09T09:27:57.743Z,24.20
2024-04-09T09:28:57.724Z,24.24
2024-04-09T09:29:57.712Z,24.27
2024-04-09T09:30:57.748Z,24.31
2024-04-09T09:31:59.394Z,24.35
2024-04-09T09:32:57.714Z,24.37
2024-04-09T09:33:57.779Z,24.40
2024-04-09T09:34:57.674Z,24.39
2024-04-09T09:35:57.691Z,24.39
2024-04-09T09:36:57.656Z,24.37
2024-04-09T09:37:59.002Z,24.35
2024-04-09T09:38:57.635Z,24.39
2024-04-09T09:39:57.636Z,24.39
2024-04-09T09:40:57.667Z,24.42
2024-04-09T09:41:57.581Z,24.46
2024-04-09T09:42:57.578Z,24.50
2024-04-09T09:43:58.833Z,24.55
2024-04-09T09:44:57.568Z,24.61
2024-04-09T09:45:57.569Z,24.64
2024-04-09T09:46:57.592Z,24.69
2024-04-09T09:47:57.745Z,24.76
2024-04-09T09:48:57.583Z,24.81
2024-04-09T09:50:02.528Z,24.85
2024-04-09T09:50:57.494Z,24.91
2024-04-09T09:51:57.496Z,24.93
2024-04-09T09:52:57.468Z,24.95
2024-04-09T09:53:57.672Z,24.96
2024-04-09T09:55:00.684Z,24.96
2024-04-09T09:55:57.451Z,24.99
2024-04-09T09:56:57.426Z,25.00
2024-04-09T09:57:57.418Z,25.02
2024-04-09T09:58:57.430Z,25.03
2024-04-09T09:59:57.416Z,25.02
2024-04-09T10:00:57.499Z,25.03
2024-04-09T10:01:57.404Z,25.05
2024-04-09T10:02:57.379Z,25.06
2024-04-09T10:03:57.640Z,25.09
2024-04-09T10:04:57.480Z,25.13
2024-04-09T10:05:57.333Z,25.20
2024-04-09T10:06:57.343Z,25.23
2024-04-09T10:07:57.302Z,25.25
2024-04-09T10:08:57.331Z,25.28
2024-04-09T10:09:57.275Z,25.33
2024-04-09T10:10:57.267Z,25.36
2024-04-09T10:11:57.312Z,25.36
2024-04-09T10:12:57.450Z,25.36
2024-04-09T10:13:57.238Z,25.39
2024-04-09T10:14:57.253Z,25.45
2024-04-09T10:15:57.387Z,25.46
2024-04-09T10:16:57.200Z,25.50
2024-04-09T10:17:57.447Z,25.55
2024-04-09T10:18:57.296Z,25.58
2024-04-09T10:19:57.183Z,25.62
2024-04-09T10:20:57.176Z,25.67
2024-04-09T10:21:57.174Z,25.72
2024-04-09T10:22:57.152Z,25.75
2024-04-09T10:23:57.141Z,25.77
2024-04-09T10:24:57.140Z,25.75
2024-04-09T10:25:57.125Z,25.76
2024-04-09T10:26:57.120Z,25.79
2024-04-09T10:27:57.091Z,25.83
2024-04-09T10:28:57.122Z,25.85
2024-04-09T10:29:57.064Z,25.91
2024-04-09T10:30:57.123Z,25.94
2024-04-09T10:31:57.057Z,25.97
2024-04-09T10:32:57.133Z,26.02
2024-04-09T10:33:57.226Z,26.05
2024-04-09T10:34:57.089Z,26.10
2024-04-09T10:35:57.009Z,26.15
2024-04-09T10:36:57.022Z,26.21
2024-04-09T10:37:56.984Z,26.26
2024-04-09T10:38:56.974Z,26.33
2024-04-09T10:39:57.044Z,26.40
2024-04-09T10:40:56.975Z,26.50
2024-04-09T10:41:56.979Z,26.55
2024-04-09T10:42:56.931Z,26.60
2024-04-09T10:43:56.926Z,26.65
2024-04-09T10:44:56.967Z,26.67
2024-04-09T10:46:05.306Z,26.70
2024-04-09T10:46:56.959Z,26.73
2024-04-09T10:47:56.963Z,26.72
2024-04-09T10:48:56.918Z,26.70
2024-04-09T10:49:56.864Z,26.73
2024-04-09T10:50:56.848Z,26.73
2024-04-09T10:51:56.977Z,26.75
2024-04-09T10:52:56.836Z,26.81
2024-04-09T10:53:56.811Z,26.87
2024-04-09T10:54:56.808Z,26.92
2024-04-09T10:55:56.798Z,26.95
2024-04-09T10:56:56.795Z,27.03
2024-04-09T10:57:56.849Z,27.10
2024-04-09T10:58:56.786Z,27.13
2024-04-09T10:59:56.749Z,27.17
2024-04-09T11:00:57.000Z,27.06
2024-04-09T11:01:56.772Z,27.00
2024-04-09T11:02:56.809Z,26.91
2024-04-09T11:03:56.750Z,26.89
2024-04-09T11:04:56.793Z,26.92
2024-04-09T11:05:56.683Z,26.95
2024-04-09T11:06:56.704Z,26.99
2024-04-09T11:07:56.700Z,27.03
2024-04-09T11:08:56.696Z,27.07
2024-04-09T11:09:56.690Z,27.10
2024-04-09T11:10:56.699Z,27.10
2024-04-09T11:11:56.627Z,27.10
2024-04-09T11:12:56.645Z,27.07
2024-04-09T11:13:56.607Z,27.12
2024-04-09T11:14:56.602Z,27.18
2024-04-09T11:15:56.588Z,27.25
2024-04-09T11:16:56.589Z,27.34
2024-04-09T11:17:56.815Z,27.40
2024-04-09T11:18:56.636Z,27.39
2024-04-09T11:19:56.547Z,27.39
2024-04-09T11:20:56.645Z,27.43
2024-04-09T11:21:56.560Z,27.50
2024-04-09T11:22:56.510Z,27.57
2024-04-09T11:23:56.523Z,27.59
2024-04-09T11:24:56.485Z,27.63
2024-04-09T11:25:56.515Z,27.69
2024-04-09T11:26:56.471Z,27.74
2024-04-09T11:27:56.469Z,27.79
2024-04-09T11:28:56.483Z,27.87
2024-04-09T11:29:56.444Z,27.94
2024-04-09T11:30:56.491Z,27.99
2024-04-09T11:31:56.414Z,28.02
2024-04-09T11:32:56.599Z,28.06
2024-04-09T11:33:56.528Z,28.18
2024-04-09T11:34:56.499Z,28.31
2024-04-09T11:35:56.394Z,28.46
2024-04-09T11:36:56.398Z,28.66
2024-04-09T11:37:56.357Z,28.76
2024-04-09T11:38:56.346Z,28.88
2024-04-09T11:39:56.394Z,29.04
2024-04-09T11:40:56.327Z,29.19
2024-04-09T11:41:56.311Z,29.34
2024-04-09T11:42:56.298Z,29.42
2024-04-09T11:43:56.309Z,29.57
2024-04-09T11:44:56.315Z,29.68
2024-04-09T11:45:56.295Z,29.79
2024-04-09T11:46:56.325Z,29.89
2024-04-09T11:47:56.346Z,29.83
2024-04-09T11:49:02.250Z,29.70
2024-04-09T11:49:56.237Z,29.68
2024-04-09T11:50:56.239Z,29.68
2024-04-09T11:51:56.258Z,29.79
2024-04-09T11:52:56.196Z,29.82
2024-04-09T11:53:56.187Z,29.78
2024-04-09T11:54:56.289Z,29.78
2024-04-09T11:55:56.171Z,29.73
2024-04-09T11:56:56.157Z,29.76
2024-04-09T11:57:56.146Z,29.80
2024-04-09T11:58:56.151Z,29.76
2024-04-09T11:59:56.127Z,29.64
2024-04-09T12:00:56.232Z,29.63
2024-04-09T12:01:56.209Z,29.61
2024-04-09T12:02:56.089Z,29.63
2024-04-09T12:03:56.189Z,29.71
2024-04-09T12:04:56.167Z,29.74
2024-04-09T12:05:56.588Z,29.73
2024-04-09T12:06:56.136Z,29.65
2024-04-09T12:07:56.040Z,29.57
2024-04-09T12:08:56.030Z,29.49
2024-04-09T12:09:56.033Z,29.52
2024-04-09T12:10:56.137Z,29.57
2024-04-09T12:11:56.003Z,29.58
2024-04-09T12:12:55.990Z,29.61
2024-04-09T12:13:55.985Z,29.57
2024-04-09T12:14:55.996Z,29.60
2024-04-09T12:15:55.993Z,29.65
2024-04-09T12:16:55.965Z,29.76
2024-04-09T12:17:56.129Z,29.80
2024-04-09T12:18:56.079Z,29.76
2024-04-09T12:19:55.918Z,29.78
2024-04-09T12:20:55.928Z,29.85
2024-04-09T12:21:55.948Z,29.90
2024-04-09T12:22:55.899Z,29.89
2024-04-09T12:23:55.902Z,29.87
2024-04-09T12:24:55.868Z,29.90
2024-04-09T12:25:55.855Z,29.97
2024-04-09T12:26:55.856Z,29.95
2024-04-09T12:27:55.942Z,29.78
2024-04-09T12:28:55.846Z,29.67
2024-04-09T12:29:55.810Z,29.73
2024-04-09T12:30:55.860Z,29.71
2024-04-09T12:31:55.813Z,29.73
2024-04-09T12:32:55.830Z,29.76
2024-04-09T12:33:55.985Z,29.80
2024-04-09T12:34:56.014Z,29.76
2024-04-09T12:35:55.755Z,29.73
2024-04-09T12:36:55.752Z,29.73
2024-04-09T12:37:55.729Z,29.71
2024-04-09T12:38:55.725Z,29.65
2024-04-09T12:39:55.753Z,29.52
2024-04-09T12:40:55.706Z,29.45
2024-04-09T12:41:55.697Z,29.36
2024-04-09T12:42:55.712Z,29.15
2024-04-09T12:43:55.678Z,29.09
2024-04-09T12:44:55.679Z,28.98
2024-04-09T12:45:55.722Z,28.92
2024-04-09T12:46:55.670Z,28.77
2024-04-09T12:47:55.826Z,28.66
2024-04-09T12:49:10.301Z,28.59
2024-04-09T12:49:55.703Z,28.51
2024-04-09T12:50:55.631Z,28.34
2024-04-09T12:51:55.624Z,28.27